createdAt,value
2019-02-05T17:09:16.747Z,1.30
2019-02-05T17:10:16.708Z,1.28
2019-02-05T17:11:16.696Z,1.20
2019-02-05T17:12:16.683Z,1.21
2019-02-05T17:13:16.680Z,1.03
2019-02-05T17:14:16.666Z,1.08
2019-02-05T17:15:16.676Z,1.03
2019-02-05T17:16:16.650Z,1.04
2019-02-05T17:17:16.634Z,1.03
2019-02-05T17:18:23.839Z,1.07
2019-02-05T17:19:17.612Z,1.04
2019-02-05T17:20:16.610Z,1.00
2019-02-05T17:21:16.624Z,1.00
2019-02-05T17:22:16.586Z,1.02
2019-02-05T17:23:16.577Z,1.04
2019-02-05T17:24:16.560Z,0.97
2019-02-05T17:25:16.554Z,0.97
2019-02-05T17:26:16.547Z,0.90
2019-02-05T17:27:16.554Z,0.85
2019-02-05T17:28:16.532Z,0.82
2019-02-05T17:29:16.509Z,0.89
2019-02-05T17:30:16.499Z,0.82
2019-02-05T17:31:16.490Z,0.81
2019-02-05T17:32:16.483Z,0.86
2019-02-05T17:33:16.496Z,0.79
2019-02-05T17:34:16.458Z,0.81
2019-02-05T17:35:16.452Z,0.75
2019-02-05T17:36:16.445Z,0.71
2019-02-05T17:37:16.458Z,0.81
2019-02-05T17:38:16.425Z,0.67
2019-02-05T17:39:16.525Z,0.69
2019-02-05T17:40:16.395Z,0.63
2019-02-05T17:41:16.381Z,0.56
2019-02-05T17:42:16.378Z,0.57
2019-02-05T17:43:16.379Z,0.53
2019-02-05T17:44:16.361Z,0.58
2019-02-05T17:45:16.355Z,0.53
2019-02-05T17:46:16.357Z,0.35
2019-02-05T17:47:16.336Z,0.45
2019-02-05T17:48:16.330Z,0.35
2019-02-05T17:49:16.308Z,0.35
2019-02-05T17:50:16.292Z,0.37
2019-02-05T17:51:16.304Z,0.31
2019-02-05T17:52:16.272Z,0.31
2019-02-05T17:53:16.256Z,0.24
2019-02-05T17:54:16.244Z,0.34
2019-02-05T17:55:16.231Z,0.24
2019-02-05T17:56:16.225Z,0.24
2019-02-05T17:57:16.232Z,0.17
2019-02-05T17:58:16.208Z,0.08
2019-02-05T17:59:16.212Z,0.23
2019-02-05T18:00:16.183Z,0.09
2019-02-05T18:01:16.183Z,0.05
2019-02-05T18:02:16.163Z,0.08
2019-02-05T18:03:16.173Z,0.06
2019-02-05T18:04:16.155Z,0.08
2019-02-05T18:05:16.135Z,0.03
2019-02-05T18:06:16.122Z,0.09
2019-02-05T18:07:16.107Z,0.06
2019-02-05T18:08:16.107Z,0.05
2019-02-05T18:09:16.208Z,0.01
2019-02-05T18:10:16.088Z,-0.04
2019-02-05T18:11:16.194Z,-0.07
2019-02-05T18:12:16.074Z,-0.13
2019-02-05T18:13:16.054Z,-0.10
2019-02-05T18:14:16.049Z,-0.04
2019-02-05T18:15:16.053Z,-0.05
2019-02-05T18:16:16.024Z,-0.12
2019-02-05T18:17:16.018Z,-0.05
2019-02-05T18:18:16.021Z,-0.02
2019-02-05T18:19:15.993Z,-0.02
2019-02-05T18:20:15.979Z,-0.18
2019-02-05T18:21:15.992Z,-0.16
2019-02-05T18:22:15.967Z,-0.02
2019-02-05T18:23:15.960Z,-0.01
2019-02-05T18:24:15.947Z,-0.04
2019-02-05T18:25:15.931Z,-0.09
2019-02-05T18:26:15.919Z,-0.15
2019-02-05T18:27:15.931Z,-0.07
2019-02-05T18:28:15.900Z,-0.25
2019-02-05T18:29:15.884Z,-0.12
2019-02-05T18:30:15.877Z,-0.16
2019-02-05T18:31:15.865Z,-0.19
2019-02-05T18:32:15.858Z,-0.18
2019-02-05T18:33:15.858Z,-0.30
2019-02-05T18:34:15.852Z,-0.31
2019-02-05T18:35:15.829Z,-0.30
2019-02-05T18:36:15.830Z,-0.22
2019-02-05T18:37:15.802Z,-0.25
2019-02-05T18:38:15.797Z,-0.25
2019-02-05T18:39:15.887Z,-0.36
2019-02-05T18:40:15.771Z,-0.37
2019-02-05T18:41:15.773Z,-0.28
2019-02-05T18:42:15.769Z,-0.28
2019-02-05T18:43:15.746Z,-0.37
2019-02-05T18:44:15.734Z,-0.28
2019-02-05T18:45:15.763Z,-0.25
2019-02-05T18:46:15.715Z,-0.20
2019-02-05T18:47:15.703Z,-0.33
2019-02-05T18:48:15.695Z,-0.28
2019-02-05T18:49:15.678Z,-0.37
2019-02-05T18:50:15.691Z,-0.38
2019-02-05T18:51:15.674Z,-0.34
2019-02-05T18:52:15.646Z,-0.49
2019-02-05T18:53:15.637Z,-0.37
2019-02-05T18:54:15.639Z,-0.51
2019-02-05T18:55:15.617Z,-0.46
2019-02-05T18:56:15.616Z,-0.40
2019-02-05T18:57:15.607Z,-0.43
2019-02-05T18:58:15.582Z,-0.46
2019-02-05T18:59:15.588Z,-0.45
2019-02-05T19:00:15.563Z,-0.48
2019-02-05T19:01:15.556Z,-0.46
2019-02-05T19:02:15.549Z,-0.61
2019-02-05T19:03:16.350Z,-0.58
2019-02-05T19:04:15.524Z,-0.64
2019-02-05T19:05:15.511Z,-0.56
2019-02-05T19:06:15.503Z,-0.55
2019-02-05T19:07:15.494Z,-0.58
2019-02-05T19:08:16.544Z,-0.56
2019-02-05T19:09:15.498Z,-0.56
2019-02-05T19:10:15.462Z,-0.52
2019-02-05T19:11:15.452Z,-0.56
2019-02-05T19:12:15.443Z,-0.62
2019-02-05T19:13:15.430Z,-0.55
2019-02-05T19:14:15.417Z,-0.55
2019-02-05T19:15:15.440Z,-0.59
2019-02-05T19:16:15.402Z,-0.55
2019-02-05T19:17:15.388Z,-0.62
2019-02-05T19:18:15.377Z,-0.67
2019-02-05T19:19:15.524Z,-0.59
2019-02-05T19:20:15.355Z,-0.70
2019-02-05T19:21:15.369Z,-0.73
2019-02-05T19:22:15.334Z,-0.70
2019-02-05T19:23:15.327Z,-0.70
2019-02-05T19:24:15.356Z,-0.79
2019-02-05T19:25:15.362Z,-0.79
2019-02-05T19:26:15.288Z,-0.77
2019-02-05T19:27:15.304Z,-0.82
2019-02-05T19:28:15.349Z,-0.87
2019-02-05T19:29:18.881Z,-0.84
2019-02-05T19:30:15.253Z,-0.82
2019-02-05T19:31:15.250Z,-0.92
2019-02-05T19:32:15.230Z,-0.84
2019-02-05T19:33:26.415Z,-0.91
2019-02-05T19:34:16.226Z,-0.95
2019-02-05T19:35:15.204Z,-0.95
2019-02-05T19:36:15.198Z,-0.93
2019-02-05T19:37:15.176Z,-0.91
2019-02-05T19:38:15.169Z,-0.93
2019-02-05T19:39:15.199Z,-0.93
2019-02-05T19:40:15.147Z,-0.98
2019-02-05T19:41:15.183Z,-0.95
2019-02-05T19:42:15.137Z,-0.87
2019-02-05T19:43:15.119Z,-0.95
2019-02-05T19:44:15.106Z,-0.93
2019-02-05T19:45:15.150Z,-0.99
2019-02-05T19:46:15.136Z,-0.96
2019-02-05T19:47:15.201Z,-1.01
2019-02-05T19:48:15.127Z,-1.04
2019-02-05T19:49:21.806Z,-0.99
2019-02-05T19:50:16.058Z,-1.04
2019-02-05T19:51:16.264Z,-0.93
2019-02-05T19:52:15.024Z,-0.99
2019-02-05T19:53:15.009Z,-0.96
2019-02-05T19:54:15.014Z,-1.09
2019-02-05T19:55:14.995Z,-0.95
2019-02-05T19:56:15.126Z,-0.99
2019-02-05T19:57:14.979Z,-1.10
2019-02-05T19:58:14.958Z,-0.98
2019-02-05T19:59:14.947Z,-1.04
2019-02-05T20:00:14.939Z,-1.09
2019-02-05T20:01:14.932Z,-1.07
2019-02-05T20:02:14.941Z,-1.14
2019-02-05T20:03:14.906Z,-1.01
2019-02-05T20:04:14.896Z,-1.10
2019-02-05T20:05:14.886Z,-1.06
2019-02-05T20:06:14.889Z,-1.04
2019-02-05T20:07:14.871Z,-0.98
2019-02-05T20:08:14.873Z,-0.96
2019-02-05T20:09:14.851Z,-0.98
2019-02-05T20:10:14.838Z,-1.06
2019-02-05T20:11:14.845Z,-0.98
2019-02-05T20:12:14.819Z,-0.99
2019-02-05T20:13:14.803Z,-0.95
2019-02-05T20:14:14.814Z,-0.98
2019-02-05T20:15:14.783Z,-0.92
2019-02-05T20:16:14.778Z,-0.99
2019-02-05T20:17:14.761Z,-0.96
2019-02-05T20:18:14.757Z,-0.95
2019-02-05T20:19:14.746Z,-1.11
2019-02-05T20:20:14.752Z,-1.11
2019-02-05T20:21:14.764Z,-1.13
2019-02-05T20:22:14.719Z,-1.01
2019-02-05T20:23:14.697Z,-1.04
2019-02-05T20:24:14.694Z,-1.14
2019-02-05T20:25:14.681Z,-0.95
2019-02-05T20:26:14.685Z,-0.99
2019-02-05T20:27:14.719Z,-0.98
2019-02-05T20:28:14.646Z,-1.07
2019-02-05T20:29:14.639Z,-0.92
2019-02-05T20:30:14.639Z,-1.01
2019-02-05T20:31:14.624Z,-0.98
2019-02-05T20:32:14.636Z,-1.07
2019-02-05T20:33:14.598Z,-0.98
2019-02-05T20:34:14.591Z,-1.11
2019-02-05T20:35:14.582Z,-1.07
2019-02-05T20:36:14.569Z,-1.01
2019-02-05T20:37:14.553Z,-1.03
2019-02-05T20:38:14.571Z,-1.11
2019-02-05T20:39:14.533Z,-1.13
2019-02-05T20:40:14.528Z,-1.19
2019-02-05T20:41:14.524Z,-1.16
2019-02-05T20:42:14.508Z,-1.16
2019-02-05T20:43:14.500Z,-1.19
2019-02-05T20:44:14.501Z,-1.24
2019-02-05T20:45:14.472Z,-1.21
2019-02-05T20:46:14.468Z,-1.11
2019-02-05T20:47:14.452Z,-1.19
2019-02-05T20:48:14.452Z,-1.19
2019-02-05T20:49:14.433Z,-1.22
2019-02-05T20:50:15.269Z,-1.10
2019-02-05T20:51:14.484Z,-1.09
2019-02-05T20:52:14.410Z,-1.14
2019-02-05T20:53:14.539Z,-1.13
2019-02-05T20:54:14.391Z,-1.11
2019-02-05T20:55:14.434Z,-1.16
2019-02-05T20:56:14.378Z,-1.21
2019-02-05T20:57:14.349Z,-1.14
2019-02-05T20:58:14.346Z,-1.17
2019-02-05T20:59:14.331Z,-1.19
2019-02-05T21:00:14.337Z,-1.14
2019-02-05T21:01:14.314Z,-1.13
2019-02-05T21:02:14.727Z,-1.24
2019-02-05T21:03:14.290Z,-1.25
2019-02-05T21:04:14.277Z,-1.28
2019-02-05T21:05:14.274Z,-1.17
2019-02-05T21:06:14.264Z,-1.21
2019-02-05T21:07:14.368Z,-1.14
2019-02-05T21:08:14.248Z,-1.17
2019-02-05T21:09:14.851Z,-1.19
2019-02-05T21:10:14.216Z,-1.32
2019-02-05T21:11:14.203Z,-1.43
2019-02-05T21:12:14.192Z,-1.52
2019-02-05T21:13:14.181Z,-1.56
2019-02-05T21:14:14.190Z,-1.58
2019-02-05T21:15:14.169Z,-1.60
2019-02-05T21:16:14.152Z,-1.53
2019-02-05T21:17:14.152Z,-1.55
2019-02-05T21:18:17.223Z,-1.67
2019-02-05T21:19:14.233Z,-1.71
2019-02-05T21:20:14.142Z,-1.71
2019-02-05T21:21:14.100Z,-1.63
2019-02-05T21:22:14.095Z,-1.61
2019-02-05T21:23:14.085Z,-1.58
2019-02-05T21:24:14.072Z,-1.50
2019-02-05T21:25:14.059Z,-1.55
2019-02-05T21:26:14.075Z,-1.63
2019-02-05T21:27:14.040Z,-1.68
2019-02-05T21:28:14.036Z,-1.60
2019-02-05T21:29:14.018Z,-1.60
2019-02-05T21:30:14.018Z,-1.68
2019-02-05T21:31:14.003Z,-1.67
2019-02-05T21:32:14.027Z,-1.61
2019-02-05T21:33:13.982Z,-1.73
2019-02-05T21:34:15.985Z,-1.78
2019-02-05T21:35:13.956Z,-1.71
2019-02-05T21:36:13.950Z,-1.81
2019-02-05T21:37:13.960Z,-1.82
2019-02-05T21:38:13.957Z,-1.91
2019-02-05T21:39:13.930Z,-1.82
2019-02-05T21:40:13.910Z,-1.84
2019-02-05T21:41:13.893Z,-1.82
2019-02-05T21:42:13.898Z,-1.84
2019-02-05T21:43:13.877Z,-1.85
2019-02-05T21:44:13.957Z,-1.85
2019-02-05T21:45:13.858Z,-1.85
2019-02-05T21:46:13.851Z,-1.89
2019-02-05T21:47:13.842Z,-1.92
2019-02-05T21:48:13.836Z,-1.92
2019-02-05T21:49:13.816Z,-1.97
2019-02-05T21:50:13.825Z,-2.12
2019-02-05T21:51:13.797Z,-2.03
2019-02-05T21:52:13.787Z,-2.07
2019-02-05T21:53:13.781Z,-2.06
2019-02-05T21:54:13.765Z,-2.09
2019-02-05T21:55:13.762Z,-2.09
2019-02-05T21:56:13.823Z,-2.10
2019-02-05T21:57:13.739Z,-2.07
2019-02-05T21:58:13.720Z,-2.02
2019-02-05T21:59:13.790Z,-1.99
2019-02-05T22:00:13.728Z,-1.89
2019-02-05T22:01:14.465Z,-2.00
2019-02-05T22:02:13.703Z,-2.02
2019-02-05T22:03:13.712Z,-1.99
2019-02-05T22:04:13.664Z,-1.99
2019-02-05T22:05:13.662Z,-2.07
2019-02-05T22:06:13.675Z,-2.10
2019-02-05T22:07:13.645Z,-2.06
2019-02-05T22:08:13.672Z,-2.00
2019-02-05T22:09:13.644Z,-1.99
2019-02-05T22:10:13.596Z,-2.07
2019-02-05T22:11:13.588Z,-2.03
2019-02-05T22:12:13.574Z,-1.92
2019-02-05T22:13:13.567Z,-1.91
2019-02-05T22:14:13.577Z,-2.14
2019-02-05T22:15:13.550Z,-2.24
2019-02-05T22:16:13.539Z,-2.24
2019-02-05T22:17:13.568Z,-2.21
2019-02-05T22:18:13.516Z,-2.15
2019-02-05T22:19:13.507Z,-2.17
2019-02-05T22:20:13.514Z,-2.30
2019-02-05T22:21:13.483Z,-2.37
2019-02-05T22:22:13.479Z,-2.37
2019-02-05T22:23:13.466Z,-2.42
2019-02-05T22:24:13.450Z,-2.30
2019-02-05T22:25:13.453Z,-2.24
2019-02-05T22:26:13.448Z,-2.12
2019-02-05T22:27:13.415Z,-2.09
2019-02-05T22:28:13.414Z,-2.00
2019-02-05T22:29:13.414Z,-1.94
2019-02-05T22:30:13.393Z,-1.85
2019-02-05T22:31:13.714Z,-1.86
2019-02-05T22:32:15.358Z,-1.85
2019-02-05T22:33:13.360Z,-1.73
2019-02-05T22:34:13.347Z,-1.81
2019-02-05T22:35:13.338Z,-1.84
2019-02-05T22:36:13.334Z,-1.73
2019-02-05T22:37:13.318Z,-1.85
2019-02-05T22:38:13.338Z,-1.76
2019-02-05T22:39:13.308Z,-1.89
2019-02-05T22:40:13.289Z,-2.05
2019-02-05T22:41:13.282Z,-2.14
2019-02-05T22:42:13.269Z,-2.14
2019-02-05T22:43:13.257Z,-2.28
2019-02-05T22:44:13.264Z,-2.39
2019-02-05T22:45:13.289Z,-2.27
2019-02-05T22:46:13.224Z,-2.18
2019-02-05T22:47:13.229Z,-2.18
2019-02-05T22:48:13.200Z,-2.27
2019-02-05T22:49:13.190Z,-2.30
2019-02-05T22:50:13.760Z,-2.25
2019-02-05T22:51:13.167Z,-2.18
2019-02-05T22:52:13.157Z,-2.28
2019-02-05T22:53:13.153Z,-2.24
2019-02-05T22:54:13.141Z,-2.30
2019-02-05T22:55:13.128Z,-2.34
2019-02-05T22:56:13.138Z,-2.42
2019-02-05T22:57:13.108Z,-2.30
2019-02-05T22:58:13.095Z,-2.39
2019-02-05T22:59:13.091Z,-2.21
2019-02-05T23:00:13.080Z,-2.23
2019-02-05T23:01:13.063Z,-2.36
2019-02-05T23:02:13.073Z,-2.42
2019-02-05T23:03:13.056Z,-2.27
2019-02-05T23:04:13.035Z,-2.30
2019-02-05T23:05:13.034Z,-2.27
2019-02-05T23:06:13.019Z,-2.24
2019-02-05T23:07:13.009Z,-2.27
2019-02-05T23:08:13.726Z,-2.25
2019-02-05T23:09:13.109Z,-2.23
2019-02-05T23:10:12.974Z,-2.24
2019-02-05T23:11:12.963Z,-2.21
2019-02-05T23:12:12.948Z,-2.30
2019-02-05T23:13:12.942Z,-2.25
2019-02-05T23:14:12.950Z,-2.23
2019-02-05T23:15:19.964Z,-2.20
2019-02-05T23:16:12.989Z,-2.25
2019-02-05T23:17:12.898Z,-2.18
2019-02-05T23:18:12.886Z,-2.20
2019-02-05T23:19:12.876Z,-2.20
2019-02-05T23:20:12.877Z,-2.20
2019-02-05T23:21:12.857Z,-2.30
2019-02-05T23:22:12.844Z,-2.24
2019-02-05T23:23:12.834Z,-2.25
2019-02-05T23:24:12.828Z,-2.18
2019-02-05T23:25:12.810Z,-2.18
2019-02-05T23:26:12.818Z,-2.12
2019-02-05T23:27:12.793Z,-2.24
2019-02-05T23:28:12.780Z,-2.25
2019-02-05T23:29:12.773Z,-2.23
2019-02-05T23:30:12.762Z,-2.21
2019-02-05T23:31:12.751Z,-2.27
2019-02-05T23:32:12.755Z,-2.42
2019-02-05T23:33:12.731Z,-2.42
2019-02-05T23:34:12.723Z,-2.32
2019-02-05T23:35:12.709Z,-2.36
2019-02-05T23:36:12.703Z,-2.18
2019-02-05T23:37:12.686Z,-2.21
2019-02-05T23:38:12.697Z,-2.23
2019-02-05T23:39:12.664Z,-2.20
2019-02-05T23:40:12.661Z,-2.24
2019-02-05T23:41:12.651Z,-2.30
2019-02-05T23:42:12.637Z,-2.28
2019-02-05T23:43:12.625Z,-2.40
2019-02-05T23:44:12.632Z,-2.28
2019-02-05T23:45:12.603Z,-2.30
2019-02-05T23:46:12.597Z,-2.32
2019-02-05T23:47:12.594Z,-2.43
2019-02-05T23:48:12.571Z,-2.44
2019-02-05T23:49:12.565Z,-2.44
2019-02-05T23:50:12.570Z,-2.40
2019-02-05T23:51:12.545Z,-2.46
2019-02-05T23:52:12.539Z,-2.53
2019-02-05T23:53:12.520Z,-2.53
2019-02-05T23:54:12.507Z,-2.58
2019-02-05T23:55:12.500Z,-2.58
2019-02-05T23:56:12.511Z,-2.53
2019-02-05T23:57:12.478Z,-2.57
2019-02-05T23:58:12.471Z,-2.65
2019-02-05T23:59:12.458Z,-2.64
